Terminal Aerodrome Forecast
Issued by NWS

Home | Current Version | Previous Version | Graphics & Text | Print | Product List | Glossary On
Versions: 1 2 3 4 5 6 7 8 9 10 11 12 13 14 15 16 17 18 19 20 21 22 23 24 25 26 27 28 29
000
FTUS43 KABR 231533 AAC
TAFPIR
TAF AMD
KPIR 231533Z 2316/2412 09011KT 6SM -SHRA BR VCTS OVC004CB
     FM231615 10015KT 5SM BR VCSH OVC003
     FM231700 11016G24KT 6SM BR BKN010
     FM232000 12019G27KT P6SM SCT035
     FM232100 12019G27KT P6SM SCT140
     FM240300 13018G25KT P6SM SCT250 WS020/16045KT=

USA.gov is the U.S. government's official web portal to all federal, state and local government web resources and services.